Terminal Aerodrome Forecast
Issued by NWS

Home | Current Version | Previous Version | Text Only | Print | Product List | Glossary On
Versions: 1 2 3 4 5 6 7 8 9 10 11 12
000
FTUS45 KABQ 260500
TAFLVS
TAF
KLVS 260536Z 2606/2706 22009KT P6SM BKN060
     FM261100 16005KT P6SM OVC050
     FM261500 06008KT P6SM OVC015
     FM261800 11007KT P6SM OVC025
      TEMPO 2618/2622 3SM -SN OVC012
     FM262200 16009KT P6SM OVC015=

USA.gov is the U.S. government's official web portal to all federal, state and local government web resources and services.